sensor_id;sensor_type;location;lat;lon;timestamp;pressure;altitude;pressure_sealevel;temperature
67822;BMP180;54434;50.096;20.082;2024-01-11T00:00:07;99927.00;;;-9.40
67822;BMP180;54434;50.096;20.082;2024-01-11T00:03:04;99910.20;;;-9.40
67822;BMP180;54434;50.096;20.082;2024-01-11T00:05:41;99913.40;;;-9.50
67822;BMP180;54434;50.096;20.082;2024-01-11T00:08:18;99917.40;;;-9.50
67822;BMP180;54434;50.096;20.082;2024-01-11T00:10:54;99914.20;;;-9.50
67822;BMP180;54434;50.096;20.082;2024-01-11T00:13:31;99909.20;;;-9.60
67822;BMP180;54434;50.096;20.082;2024-01-11T00:16:08;99908.80;;;-9.62
67822;BMP180;54434;50.096;20.082;2024-01-11T00:18:45;99907.00;;;-9.70
67822;BMP180;54434;50.096;20.082;2024-01-11T00:21:21;99899.60;;;-9.80
67822;BMP180;54434;50.096;20.082;2024-01-11T00:23:58;99885.40;;;-9.90
67822;BMP180;54434;50.096;20.082;2024-01-11T00:26:34;99889.60;;;-10.00
67822;BMP180;54434;50.096;20.082;2024-01-11T00:29:12;99887.00;;;-10.00
67822;BMP180;54434;50.096;20.082;2024-01-11T00:31:48;99879.40;;;-9.94
67822;BMP180;54434;50.096;20.082;2024-01-11T00:34:25;99882.40;;;-9.88
67822;BMP180;54434;50.096;20.082;2024-01-11T00:37:02;99872.80;;;-9.80
67822;BMP180;54434;50.096;20.082;2024-01-11T00:39:38;99869.00;;;-9.70
67822;BMP180;54434;50.096;20.082;2024-01-11T00:42:15;99863.80;;;-9.60
67822;BMP180;54434;50.096;20.082;2024-01-11T00:44:52;99860.40;;;-9.50
67822;BMP180;54434;50.096;20.082;2024-01-11T00:47:29;99870.00;;;-9.40
67822;BMP180;54434;50.096;20.082;2024-01-11T00:50:07;99870.40;;;-9.40
67822;BMP180;54434;50.096;20.082;2024-01-11T00:52:44;99863.00;;;-9.34
67822;BMP180;54434;50.096;20.082;2024-01-11T00:55:21;99861.80;;;-9.30
67822;BMP180;54434;50.096;20.082;2024-01-11T00:57:59;99855.00;;;-9.30
67822;BMP180;54434;50.096;20.082;2024-01-11T01:00:36;99863.80;;;-9.30
67822;BMP180;54434;50.096;20.082;2024-01-11T01:06:11;99870.20;;;-9.30
67822;BMP180;54434;50.096;20.082;2024-01-11T01:08:48;99867.20;;;-9.30
67822;BMP180;54434;50.096;20.082;2024-01-11T01:11:24;99864.20;;;-9.30
67822;BMP180;54434;50.096;20.082;2024-01-11T01:14:01;99863.20;;;-9.36
67822;BMP180;54434;50.096;20.082;2024-01-11T01:16:38;99861.80;;;-9.40
67822;BMP180;54434;50.096;20.082;2024-01-11T01:19:14;99854.40;;;-9.40
67822;BMP180;54434;50.096;20.082;2024-01-11T01:21:51;99858.20;;;-9.50
67822;BMP180;54434;50.096;20.082;2024-01-11T01:24:27;99860.80;;;-9.50
67822;BMP180;54434;50.096;20.082;2024-01-11T01:27:05;99857.20;;;-9.60
67822;BMP180;54434;50.096;20.082;2024-01-11T01:29:42;99850.40;;;-9.60
67822;BMP180;54434;50.096;20.082;2024-01-11T01:32:18;99843.80;;;-9.60
67822;BMP180;54434;50.096;20.082;2024-01-11T01:34:55;99840.60;;;-9.60
67822;BMP180;54434;50.096;20.082;2024-01-11T01:37:31;99836.00;;;-9.58
67822;BMP180;54434;50.096;20.082;2024-01-11T01:40:11;99841.60;;;-9.58
67822;BMP180;54434;50.096;20.082;2024-01-11T01:42:49;99836.60;;;-9.50
67822;BMP180;54434;50.096;20.082;2024-01-11T01:45:26;99832.00;;;-9.50
67822;BMP180;54434;50.096;20.082;2024-01-11T01:48:04;99835.00;;;-9.50
67822;BMP180;54434;50.096;20.082;2024-01-11T01:50:41;99830.40;;;-9.58
67822;BMP180;54434;50.096;20.082;2024-01-11T01:53:23;99821.60;;;-9.60
67822;BMP180;54434;50.096;20.082;2024-01-11T01:56:00;99824.00;;;-9.60
67822;BMP180;54434;50.096;20.082;2024-01-11T01:58:37;99826.00;;;-9.60
67822;BMP180;54434;50.096;20.082;2024-01-11T02:01:15;99828.20;;;-9.64
67822;BMP180;54434;50.096;20.082;2024-01-11T02:03:53;99831.20;;;-9.60
67822;BMP180;54434;50.096;20.082;2024-01-11T02:06:33;99821.00;;;-9.60
67822;BMP180;54434;50.096;20.082;2024-01-11T02:09:12;99809.00;;;-9.60
67822;BMP180;54434;50.096;20.082;2024-01-11T02:11:50;99802.40;;;-9.58
67822;BMP180;54434;50.096;20.082;2024-01-11T02:14:28;99792.20;;;-9.50
67822;BMP180;54434;50.096;20.082;2024-01-11T02:17:05;99790.60;;;-9.50
67822;BMP180;54434;50.096;20.082;2024-01-11T02:19:41;99793.40;;;-9.50
67822;BMP180;54434;50.096;20.082;2024-01-11T02:22:27;99792.60;;;-9.46
67822;BMP180;54434;50.096;20.082;2024-01-11T02:25:06;99789.80;;;-9.40
67822;BMP180;54434;50.096;20.082;2024-01-11T02:27:53;99788.20;;;-9.40
67822;BMP180;54434;50.096;20.082;2024-01-11T02:30:29;99787.40;;;-9.36
67822;BMP180;54434;50.096;20.082;2024-01-11T02:33:07;99781.40;;;-9.30
67822;BMP180;54434;50.096;20.082;2024-01-11T02:35:45;99768.00;;;-9.22
67822;BMP180;54434;50.096;20.082;2024-01-11T02:38:22;99767.40;;;-9.20
67822;BMP180;54434;50.096;20.082;2024-01-11T02:41:00;99773.40;;;-9.10
67822;BMP180;54434;50.096;20.082;2024-01-11T02:43:37;99767.80;;;-9.10
67822;BMP180;54434;50.096;20.082;2024-01-11T02:46:14;99766.20;;;-9.10
67822;BMP180;54434;50.096;20.082;2024-01-11T02:48:51;99782.80;;;-9.00
67822;BMP180;54434;50.096;20.082;2024-01-11T02:51:28;99784.80;;;-9.00
67822;BMP180;54434;50.096;20.082;2024-01-11T02:54:05;99785.20;;;-8.90
67822;BMP180;54434;50.096;20.082;2024-01-11T02:56:42;99782.80;;;-8.90
67822;BMP180;54434;50.096;20.082;2024-01-11T02:59:19;99776.00;;;-8.80
67822;BMP180;54434;50.096;20.082;2024-01-11T03:01:56;99774.00;;;-8.70
67822;BMP180;54434;50.096;20.082;2024-01-11T03:04:32;99773.40;;;-8.70
67822;BMP180;54434;50.096;20.082;2024-01-11T03:07:09;99769.60;;;-8.60
67822;BMP180;54434;50.096;20.082;2024-01-11T03:09:46;99768.80;;;-8.60
67822;BMP180;54434;50.096;20.082;2024-01-11T03:12:22;99765.00;;;-8.50
67822;BMP180;54434;50.096;20.082;2024-01-11T03:15:01;99765.80;;;-8.42
67822;BMP180;54434;50.096;20.082;2024-01-11T03:17:38;99765.00;;;-8.40
67822;BMP180;54434;50.096;20.082;2024-01-11T03:20:16;99752.60;;;-8.40
67822;BMP180;54434;50.096;20.082;2024-01-11T03:22:56;99748.20;;;-8.40
67822;BMP180;54434;50.096;20.082;2024-01-11T03:25:33;99753.00;;;-8.40
67822;BMP180;54434;50.096;20.082;2024-01-11T03:28:10;99755.20;;;-8.40
67822;BMP180;54434;50.096;20.082;2024-01-11T03:30:46;99757.20;;;-8.50
67822;BMP180;54434;50.096;20.082;2024-01-11T03:33:23;99765.20;;;-8.50
67822;BMP180;54434;50.096;20.082;2024-01-11T03:35:59;99756.20;;;-8.60
67822;BMP180;54434;50.096;20.082;2024-01-11T03:38:48;99753.00;;;-8.60
67822;BMP180;54434;50.096;20.082;2024-01-11T03:41:26;99747.60;;;-8.70
67822;BMP180;54434;50.096;20.082;2024-01-11T03:44:03;99743.20;;;-8.70
67822;BMP180;54434;50.096;20.082;2024-01-11T03:46:40;99739.00;;;-8.80
67822;BMP180;54434;50.096;20.082;2024-01-11T03:49:16;99732.00;;;-8.82
67822;BMP180;54434;50.096;20.082;2024-01-11T03:51:53;99728.80;;;-8.90
67822;BMP180;54434;50.096;20.082;2024-01-11T03:54:29;99731.40;;;-8.90
67822;BMP180;54434;50.096;20.082;2024-01-11T03:57:07;99732.20;;;-8.90
67822;BMP180;54434;50.096;20.082;2024-01-11T03:59:46;99735.00;;;-8.90
67822;BMP180;54434;50.096;20.082;2024-01-11T04:02:23;99743.40;;;-8.90
67822;BMP180;54434;50.096;20.082;2024-01-11T04:04:59;99745.80;;;-8.90
67822;BMP180;54434;50.096;20.082;2024-01-11T04:07:37;99745.40;;;-8.90
67822;BMP180;54434;50.096;20.082;2024-01-11T04:10:14;99740.40;;;-8.90
67822;BMP180;54434;50.096;20.082;2024-01-11T04:12:51;99735.60;;;-8.82
67822;BMP180;54434;50.096;20.082;2024-01-11T04:15:28;99735.00;;;-8.80
67822;BMP180;54434;50.096;20.082;2024-01-11T04:18:05;99735.00;;;-8.82
67822;BMP180;54434;50.096;20.082;2024-01-11T04:20:41;99736.80;;;-8.82
67822;BMP180;54434;50.096;20.082;2024-01-11T04:23:18;99741.40;;;-8.90
67822;BMP180;54434;50.096;20.082;2024-01-11T04:25:55;99745.40;;;-8.90
67822;BMP180;54434;50.096;20.082;2024-01-11T04:28:31;99744.00;;;-8.90
67822;BMP180;54434;50.096;20.082;2024-01-11T04:31:12;99740.00;;;-8.90
67822;BMP180;54434;50.096;20.082;2024-01-11T04:33:49;99732.80;;;-8.90
67822;BMP180;54434;50.096;20.082;2024-01-11T04:36:25;99725.60;;;-8.90
67822;BMP180;54434;50.096;20.082;2024-01-11T04:39:02;99711.00;;;-8.90
67822;BMP180;54434;50.096;20.082;2024-01-11T04:41:40;99701.00;;;-8.90
67822;BMP180;54434;50.096;20.082;2024-01-11T04:44:17;99700.00;;;-8.90
67822;BMP180;54434;50.096;20.082;2024-01-11T04:46:53;99695.60;;;-8.90
67822;BMP180;54434;50.096;20.082;2024-01-11T04:49:30;99692.00;;;-8.90
67822;BMP180;54434;50.096;20.082;2024-01-11T04:52:07;99689.40;;;-8.90
67822;BMP180;54434;50.096;20.082;2024-01-11T04:54:44;99685.60;;;-8.90
67822;BMP180;54434;50.096;20.082;2024-01-11T04:57:20;99683.20;;;-8.90
67822;BMP180;54434;50.096;20.082;2024-01-11T04:59:57;99676.20;;;-8.92
67822;BMP180;54434;50.096;20.082;2024-01-11T05:02:37;99669.00;;;-8.90
67822;BMP180;54434;50.096;20.082;2024-01-11T05:05:14;99667.00;;;-8.90
67822;BMP180;54434;50.096;20.082;2024-01-11T05:07:51;99675.00;;;-8.90
67822;BMP180;54434;50.096;20.082;2024-01-11T05:10:27;99676.60;;;-8.90
67822;BMP180;54434;50.096;20.082;2024-01-11T05:13:04;99661.60;;;-8.90
67822;BMP180;54434;50.096;20.082;2024-01-11T05:15:41;99651.60;;;-8.90
67822;BMP180;54434;50.096;20.082;2024-01-11T05:18:17;99644.40;;;-8.90
67822;BMP180;54434;50.096;20.082;2024-01-11T05:20:54;99630.20;;;-8.90
67822;BMP180;54434;50.096;20.082;2024-01-11T05:23:30;99636.20;;;-8.90
67822;BMP180;54434;50.096;20.082;2024-01-11T05:26:07;99644.80;;;-8.82
67822;BMP180;54434;50.096;20.082;2024-01-11T05:28:44;99655.00;;;-8.80
67822;BMP180;54434;50.096;20.082;2024-01-11T05:31:21;99649.00;;;-8.80
67822;BMP180;54434;50.096;20.082;2024-01-11T05:33:57;99644.80;;;-8.80
67822;BMP180;54434;50.096;20.082;2024-01-11T05:36:34;99646.00;;;-8.80
67822;BMP180;54434;50.096;20.082;2024-01-11T05:39:11;99641.40;;;-8.80
67822;BMP180;54434;50.096;20.082;2024-01-11T05:41:49;99638.20;;;-8.80
67822;BMP180;54434;50.096;20.082;2024-01-11T05:44:25;99644.60;;;-8.78
67822;BMP180;54434;50.096;20.082;2024-01-11T05:47:02;99651.00;;;-8.70
67822;BMP180;54434;50.096;20.082;2024-01-11T05:49:39;99654.20;;;-8.70
67822;BMP180;54434;50.096;20.082;2024-01-11T05:52:16;99650.60;;;-8.70
67822;BMP180;54434;50.096;20.082;2024-01-11T05:54:53;99638.20;;;-8.64
67822;BMP180;54434;50.096;20.082;2024-01-11T05:57:29;99622.80;;;-8.60
67822;BMP180;54434;50.096;20.082;2024-01-11T06:00:08;99626.80;;;-8.60
67822;BMP180;54434;50.096;20.082;2024-01-11T06:02:44;99635.40;;;-8.60
67822;BMP180;54434;50.096;20.082;2024-01-11T06:05:21;99645.60;;;-8.60
67822;BMP180;54434;50.096;20.082;2024-01-11T06:07:58;99654.00;;;-8.60
67822;BMP180;54434;50.096;20.082;2024-01-11T06:10:34;99675.00;;;-8.52
67822;BMP180;54434;50.096;20.082;2024-01-11T06:13:11;99670.00;;;-8.50
67822;BMP180;54434;50.096;20.082;2024-01-11T06:15:47;99672.40;;;-8.50
67822;BMP180;54434;50.096;20.082;2024-01-11T06:18:25;99676.40;;;-8.50
67822;BMP180;54434;50.096;20.082;2024-01-11T06:21:01;99668.80;;;-8.50
67822;BMP180;54434;50.096;20.082;2024-01-11T06:23:38;99663.40;;;-8.48
67822;BMP180;54434;50.096;20.082;2024-01-11T06:26:14;99666.00;;;-8.40
67822;BMP180;54434;50.096;20.082;2024-01-11T06:28:51;99662.60;;;-8.40
67822;BMP180;54434;50.096;20.082;2024-01-11T06:31:28;99651.20;;;-8.40
67822;BMP180;54434;50.096;20.082;2024-01-11T06:34:04;99638.00;;;-8.30
67822;BMP180;54434;50.096;20.082;2024-01-11T06:36:40;99638.00;;;-8.30
67822;BMP180;54434;50.096;20.082;2024-01-11T06:39:17;99636.80;;;-8.30
67822;BMP180;54434;50.096;20.082;2024-01-11T06:41:53;99617.20;;;-8.30
67822;BMP180;54434;50.096;20.082;2024-01-11T06:44:30;99607.20;;;-8.20
67822;BMP180;54434;50.096;20.082;2024-01-11T06:47:08;99599.80;;;-8.20
67822;BMP180;54434;50.096;20.082;2024-01-11T06:49:45;99586.80;;;-8.20
67822;BMP180;54434;50.096;20.082;2024-01-11T06:52:22;99562.20;;;-8.12
67822;BMP180;54434;50.096;20.082;2024-01-11T06:54:58;99562.40;;;-8.10
67822;BMP180;54434;50.096;20.082;2024-01-11T06:57:36;99564.00;;;-8.00
67822;BMP180;54434;50.096;20.082;2024-01-11T07:00:14;99548.20;;;-8.00
67822;BMP180;54434;50.096;20.082;2024-01-11T07:02:50;99549.80;;;-7.90
67822;BMP180;54434;50.096;20.082;2024-01-11T07:05:29;99555.60;;;-7.80
67822;BMP180;54434;50.096;20.082;2024-01-11T07:08:07;99553.00;;;-7.70
67822;BMP180;54434;50.096;20.082;2024-01-11T07:10:43;99550.40;;;-7.70
67822;BMP180;54434;50.096;20.082;2024-01-11T07:13:22;99536.20;;;-7.58
67822;BMP180;54434;50.096;20.082;2024-01-11T07:15:59;99537.80;;;-7.50
67822;BMP180;54434;50.096;20.082;2024-01-11T07:18:38;99537.00;;;-7.40
67822;BMP180;54434;50.096;20.082;2024-01-11T07:21:14;99546.20;;;-7.30
67822;BMP180;54434;50.096;20.082;2024-01-11T07:23:56;99559.60;;;-7.20
67822;BMP180;54434;50.096;20.082;2024-01-11T07:26:33;99562.00;;;-7.10
67822;BMP180;54434;50.096;20.082;2024-01-11T07:29:09;99549.60;;;-7.00
67822;BMP180;54434;50.096;20.082;2024-01-11T07:31:46;99541.80;;;-6.82
67822;BMP180;54434;50.096;20.082;2024-01-11T07:34:22;99540.40;;;-6.68
67822;BMP180;54434;50.096;20.082;2024-01-11T07:36:59;99545.40;;;-6.50
67822;BMP180;54434;50.096;20.082;2024-01-11T07:39:36;99540.60;;;-6.20
67822;BMP180;54434;50.096;20.082;2024-01-11T07:42:13;99530.20;;;-5.90
67822;BMP180;54434;50.096;20.082;2024-01-11T07:44:51;99519.20;;;-5.60
67822;BMP180;54434;50.096;20.082;2024-01-11T07:47:27;99523.20;;;-5.30
67822;BMP180;54434;50.096;20.082;2024-01-11T07:50:04;99526.40;;;-5.00
67822;BMP180;54434;50.096;20.082;2024-01-11T07:52:42;99534.00;;;-4.70
67822;BMP180;54434;50.096;20.082;2024-01-11T07:55:19;99528.60;;;-4.44
67822;BMP180;54434;50.096;20.082;2024-01-11T07:57:59;99529.20;;;-4.16
67822;BMP180;54434;50.096;20.082;2024-01-11T08:00:35;99522.60;;;-3.94
67822;BMP180;54434;50.096;20.082;2024-01-11T08:03:12;99524.80;;;-3.70
67822;BMP180;54434;50.096;20.082;2024-01-11T08:05:49;99533.60;;;-3.60
67822;BMP180;54434;50.096;20.082;2024-01-11T08:08:25;99532.20;;;-3.40
67822;BMP180;54434;50.096;20.082;2024-01-11T08:11:03;99549.40;;;-3.28
67822;BMP180;54434;50.096;20.082;2024-01-11T08:13:40;99553.20;;;-3.00
67822;BMP180;54434;50.096;20.082;2024-01-11T08:16:21;99539.00;;;-2.70
67822;BMP180;54434;50.096;20.082;2024-01-11T08:18:57;99531.60;;;-2.50
67822;BMP180;54434;50.096;20.082;2024-01-11T08:21:34;99524.20;;;-2.30
67822;BMP180;54434;50.096;20.082;2024-01-11T08:24:11;99523.80;;;-2.18
67822;BMP180;54434;50.096;20.082;2024-01-11T08:26:48;99517.00;;;-2.10
67822;BMP180;54434;50.096;20.082;2024-01-11T08:29:24;99525.80;;;-2.00
67822;BMP180;54434;50.096;20.082;2024-01-11T08:32:01;99528.80;;;-2.00
67822;BMP180;54434;50.096;20.082;2024-01-11T08:34:59;99537.00;;;-2.00
67822;BMP180;54434;50.096;20.082;2024-01-11T08:37:36;99551.20;;;-2.00
67822;BMP180;54434;50.096;20.082;2024-01-11T08:40:15;99562.40;;;-1.90
67822;BMP180;54434;50.096;20.082;2024-01-11T08:42:51;99549.00;;;-1.90
67822;BMP180;54434;50.096;20.082;2024-01-11T08:45:28;99549.40;;;-1.86
67822;BMP180;54434;50.096;20.082;2024-01-11T08:48:06;99542.80;;;-1.80
67822;BMP180;54434;50.096;20.082;2024-01-11T08:50:42;99536.40;;;-1.80
67822;BMP180;54434;50.096;20.082;2024-01-11T08:53:19;99536.80;;;-1.80
67822;BMP180;54434;50.096;20.082;2024-01-11T08:55:57;99529.40;;;-1.80
67822;BMP180;54434;50.096;20.082;2024-01-11T08:58:33;99529.20;;;-1.74
67822;BMP180;54434;50.096;20.082;2024-01-11T09:01:11;99525.40;;;-1.68
67822;BMP180;54434;50.096;20.082;2024-01-11T09:03:48;99517.40;;;-1.60
67822;BMP180;54434;50.096;20.082;2024-01-11T09:06:25;99521.00;;;-1.60
67822;BMP180;54434;50.096;20.082;2024-01-11T09:09:02;99527.00;;;-1.50
67822;BMP180;54434;50.096;20.082;2024-01-11T09:11:45;99530.80;;;-1.48
67822;BMP180;54434;50.096;20.082;2024-01-11T09:14:21;99537.80;;;-1.40
67822;BMP180;54434;50.096;20.082;2024-01-11T09:16:58;99534.80;;;-1.32
67822;BMP180;54434;50.096;20.082;2024-01-11T09:19:34;99530.80;;;-1.30
67822;BMP180;54434;50.096;20.082;2024-01-11T09:22:13;99529.20;;;-1.20
67822;BMP180;54434;50.096;20.082;2024-01-11T09:24:49;99524.20;;;-1.18
67822;BMP180;54434;50.096;20.082;2024-01-11T09:27:26;99516.80;;;-1.10
67822;BMP180;54434;50.096;20.082;2024-01-11T09:30:04;99513.80;;;-1.00
67822;BMP180;54434;50.096;20.082;2024-01-11T09:32:40;99520.00;;;-1.00
67822;BMP180;54434;50.096;20.082;2024-01-11T09:35:17;99511.80;;;-0.90
67822;BMP180;54434;50.096;20.082;2024-01-11T09:37:54;99503.80;;;-0.90
67822;BMP180;54434;50.096;20.082;2024-01-11T09:40:31;99494.20;;;-0.72
67822;BMP180;54434;50.096;20.082;2024-01-11T09:43:10;99495.00;;;-0.60
67822;BMP180;54434;50.096;20.082;2024-01-11T09:45:47;99500.80;;;-0.60
67822;BMP180;54434;50.096;20.082;2024-01-11T09:48:26;99504.00;;;-0.54
67822;BMP180;54434;50.096;20.082;2024-01-11T09:51:05;99495.00;;;-0.50
67822;BMP180;54434;50.096;20.082;2024-01-11T09:53:45;99483.60;;;-0.50
67822;BMP180;54434;50.096;20.082;2024-01-11T09:56:23;99476.60;;;-0.50
67822;BMP180;54434;50.096;20.082;2024-01-11T09:59:00;99481.00;;;-0.44
67822;BMP180;54434;50.096;20.082;2024-01-11T10:01:36;99484.00;;;-0.40
67822;BMP180;54434;50.096;20.082;2024-01-11T10:04:14;99487.60;;;-0.30
67822;BMP180;54434;50.096;20.082;2024-01-11T10:06:53;99487.00;;;-0.20
67822;BMP180;54434;50.096;20.082;2024-01-11T10:09:30;99481.80;;;-0.20
67822;BMP180;54434;50.096;20.082;2024-01-11T10:12:08;99475.60;;;-0.10
67822;BMP180;54434;50.096;20.082;2024-01-11T10:14:45;99472.80;;;-0.10
67822;BMP180;54434;50.096;20.082;2024-01-11T10:17:22;99461.80;;;-0.10
67822;BMP180;54434;50.096;20.082;2024-01-11T10:20:00;99453.20;;;-0.20
67822;BMP180;54434;50.096;20.082;2024-01-11T10:22:38;99448.80;;;-0.20
67822;BMP180;54434;50.096;20.082;2024-01-11T10:25:18;99445.80;;;-0.12
67822;BMP180;54434;50.096;20.082;2024-01-11T10:27:54;99446.20;;;-0.20
67822;BMP180;54434;50.096;20.082;2024-01-11T10:30:32;99447.00;;;-0.20
67822;BMP180;54434;50.096;20.082;2024-01-11T10:33:10;99442.60;;;-0.20
67822;BMP180;54434;50.096;20.082;2024-01-11T10:35:47;99434.80;;;-0.22
67822;BMP180;54434;50.096;20.082;2024-01-11T10:38:27;99442.20;;;-0.30
67822;BMP180;54434;50.096;20.082;2024-01-11T10:41:08;99445.60;;;-0.30
67822;BMP180;54434;50.096;20.082;2024-01-11T10:43:48;99446.00;;;-0.30
67822;BMP180;54434;50.096;20.082;2024-01-11T10:46:30;99453.20;;;-0.30
67822;BMP180;54434;50.096;20.082;2024-01-11T10:49:10;99445.00;;;-0.30
67822;BMP180;54434;50.096;20.082;2024-01-11T10:51:59;99433.40;;;-0.20
67822;BMP180;54434;50.096;20.082;2024-01-11T10:54:38;99425.20;;;-0.20
67822;BMP180;54434;50.096;20.082;2024-01-11T10:57:17;99420.40;;;-0.14
67822;BMP180;54434;50.096;20.082;2024-01-11T10:59:56;99416.20;;;-0.20
67822;BMP180;54434;50.096;20.082;2024-01-11T11:02:35;99406.00;;;-0.10
67822;BMP180;54434;50.096;20.082;2024-01-11T11:05:14;99407.20;;;-0.10
67822;BMP180;54434;50.096;20.082;2024-01-11T11:07:53;99404.60;;;-0.10
67822;BMP180;54434;50.096;20.082;2024-01-11T11:10:31;99402.60;;;-0.10
67822;BMP180;54434;50.096;20.082;2024-01-11T11:13:10;99405.80;;;-0.10
67822;BMP180;54434;50.096;20.082;2024-01-11T11:15:49;99399.60;;;-0.20
67822;BMP180;54434;50.096;20.082;2024-01-11T11:18:26;99406.40;;;-0.20
67822;BMP180;54434;50.096;20.082;2024-01-11T11:21:09;99400.20;;;-0.20
67822;BMP180;54434;50.096;20.082;2024-01-11T11:23:47;99383.80;;;-0.20
67822;BMP180;54434;50.096;20.082;2024-01-11T11:26:27;99385.40;;;-0.30
67822;BMP180;54434;50.096;20.082;2024-01-11T11:29:04;99388.20;;;-0.30
67822;BMP180;54434;50.096;20.082;2024-01-11T11:31:46;99376.20;;;-0.40
67822;BMP180;54434;50.096;20.082;2024-01-11T11:34:45;99369.40;;;-0.40
67822;BMP180;54434;50.096;20.082;2024-01-11T11:37:32;99366.00;;;-0.50
67822;BMP180;54434;50.096;20.082;2024-01-11T11:40:11;99373.80;;;-0.50
67822;BMP180;54434;50.096;20.082;2024-01-11T11:42:49;99367.60;;;-0.50
67822;BMP180;54434;50.096;20.082;2024-01-11T11:45:31;99376.60;;;-0.52
67822;BMP180;54434;50.096;20.082;2024-01-11T11:48:52;99378.40;;;-0.50
67822;BMP180;54434;50.096;20.082;2024-01-11T11:51:30;99379.80;;;-0.50
67822;BMP180;54434;50.096;20.082;2024-01-11T11:54:11;99380.00;;;-0.50
67822;BMP180;54434;50.096;20.082;2024-01-11T11:56:50;99382.40;;;-0.50
67822;BMP180;54434;50.096;20.082;2024-01-11T11:59:28;99381.20;;;-0.46
67822;BMP180;54434;50.096;20.082;2024-01-11T12:02:06;99374.00;;;-0.40
67822;BMP180;54434;50.096;20.082;2024-01-11T12:04:50;99370.60;;;-0.40
67822;BMP180;54434;50.096;20.082;2024-01-11T12:07:27;99362.60;;;-0.32
67822;BMP180;54434;50.096;20.082;2024-01-11T12:10:06;99354.00;;;-0.30
67822;BMP180;54434;50.096;20.082;2024-01-11T12:12:42;99348.60;;;-0.26
67822;BMP180;54434;50.096;20.082;2024-01-11T12:15:19;99343.60;;;-0.20
67822;BMP180;54434;50.096;20.082;2024-01-11T12:18:01;99320.80;;;-0.20
67822;BMP180;54434;50.096;20.082;2024-01-11T12:20:38;99318.00;;;-0.20
67822;BMP180;54434;50.096;20.082;2024-01-11T12:23:16;99320.60;;;-0.12
67822;BMP180;54434;50.096;20.082;2024-01-11T12:25:53;99315.00;;;-0.10
67822;BMP180;54434;50.096;20.082;2024-01-11T12:28:29;99308.00;;;0.00
67822;BMP180;54434;50.096;20.082;2024-01-11T12:31:08;99301.80;;;0.00
67822;BMP180;54434;50.096;20.082;2024-01-11T12:33:45;99299.20;;;0.00
67822;BMP180;54434;50.096;20.082;2024-01-11T12:36:23;99300.40;;;0.00
67822;BMP180;54434;50.096;20.082;2024-01-11T12:39:00;99300.80;;;0.00
67822;BMP180;54434;50.096;20.082;2024-01-11T12:41:39;99303.60;;;0.00
67822;BMP180;54434;50.096;20.082;2024-01-11T12:44:16;99304.20;;;0.00
67822;BMP180;54434;50.096;20.082;2024-01-11T12:46:54;99288.80;;;0.00
67822;BMP180;54434;50.096;20.082;2024-01-11T12:49:30;99284.20;;;0.00
67822;BMP180;54434;50.096;20.082;2024-01-11T12:52:07;99286.80;;;0.00
67822;BMP180;54434;50.096;20.082;2024-01-11T12:54:44;99284.20;;;0.00
67822;BMP180;54434;50.096;20.082;2024-01-11T12:57:23;99284.00;;;-0.08
67822;BMP180;54434;50.096;20.082;2024-01-11T13:00:14;99288.60;;;-0.10
67822;BMP180;54434;50.096;20.082;2024-01-11T13:02:52;99283.40;;;-0.10
67822;BMP180;54434;50.096;20.082;2024-01-11T13:05:29;99285.40;;;-0.10
67822;BMP180;54434;50.096;20.082;2024-01-11T13:08:14;99287.60;;;-0.20
67822;BMP180;54434;50.096;20.082;2024-01-11T13:10:54;99283.80;;;-0.20
67822;BMP180;54434;50.096;20.082;2024-01-11T13:13:30;99284.20;;;-0.20
67822;BMP180;54434;50.096;20.082;2024-01-11T13:16:07;99288.00;;;-0.20
67822;BMP180;54434;50.096;20.082;2024-01-11T13:18:46;99270.80;;;-0.30
67822;BMP180;54434;50.096;20.082;2024-01-11T13:21:23;99276.40;;;-0.30
67822;BMP180;54434;50.096;20.082;2024-01-11T13:24:00;99274.60;;;-0.30
67822;BMP180;54434;50.096;20.082;2024-01-11T13:26:37;99272.40;;;-0.30
67822;BMP180;54434;50.096;20.082;2024-01-11T13:29:14;99263.20;;;-0.30
67822;BMP180;54434;50.096;20.082;2024-01-11T13:31:50;99271.00;;;-0.34
67822;BMP180;54434;50.096;20.082;2024-01-11T13:34:27;99265.00;;;-0.40
67822;BMP180;54434;50.096;20.082;2024-01-11T13:37:04;99267.40;;;-0.40
67822;BMP180;54434;50.096;20.082;2024-01-11T13:39:41;99257.60;;;-0.40
67822;BMP180;54434;50.096;20.082;2024-01-11T13:42:18;99256.80;;;-0.50
67822;BMP180;54434;50.096;20.082;2024-01-11T13:44:55;99251.00;;;-0.50
67822;BMP180;54434;50.096;20.082;2024-01-11T13:47:31;99255.40;;;-0.60
67822;BMP180;54434;50.096;20.082;2024-01-11T13:50:09;99261.00;;;-0.60
67822;BMP180;54434;50.096;20.082;2024-01-11T13:52:47;99264.80;;;-0.70
67822;BMP180;54434;50.096;20.082;2024-01-11T13:55:24;99263.80;;;-0.70
67822;BMP180;54434;50.096;20.082;2024-01-11T13:58:01;99260.60;;;-0.74
67822;BMP180;54434;50.096;20.082;2024-01-11T14:00:38;99264.00;;;-0.80
67822;BMP180;54434;50.096;20.082;2024-01-11T14:03:15;99262.00;;;-0.80
67822;BMP180;54434;50.096;20.082;2024-01-11T14:05:52;99259.40;;;-0.82
67822;BMP180;54434;50.096;20.082;2024-01-11T14:08:29;99263.40;;;-0.90
67822;BMP180;54434;50.096;20.082;2024-01-11T14:11:06;99258.80;;;-0.90
67822;BMP180;54434;50.096;20.082;2024-01-11T14:13:43;99264.60;;;-0.90
67822;BMP180;54434;50.096;20.082;2024-01-11T14:16:20;99263.80;;;-0.98
67822;BMP180;54434;50.096;20.082;2024-01-11T14:18:59;99262.60;;;-1.00
67822;BMP180;54434;50.096;20.082;2024-01-11T14:21:36;99263.00;;;-1.10
67822;BMP180;54434;50.096;20.082;2024-01-11T14:24:13;99265.80;;;-1.10
67822;BMP180;54434;50.096;20.082;2024-01-11T14:26:57;99267.60;;;-1.10
67822;BMP180;54434;50.096;20.082;2024-01-11T14:29:35;99271.00;;;-1.10
67822;BMP180;54434;50.096;20.082;2024-01-11T14:32:12;99278.20;;;-1.18
67822;BMP180;54434;50.096;20.082;2024-01-11T14:35:09;99282.40;;;-1.20
67822;BMP180;54434;50.096;20.082;2024-01-11T14:37:46;99298.60;;;-1.20
67822;BMP180;54434;50.096;20.082;2024-01-11T14:40:23;99319.60;;;-1.20
67822;BMP180;54434;50.096;20.082;2024-01-11T14:43:02;99332.80;;;-1.20
67822;BMP180;54434;50.096;20.082;2024-01-11T14:45:40;99344.80;;;-1.20
67822;BMP180;54434;50.096;20.082;2024-01-11T14:48:16;99347.60;;;-1.20
67822;BMP180;54434;50.096;20.082;2024-01-11T14:50:53;99351.40;;;-1.28
67822;BMP180;54434;50.096;20.082;2024-01-11T14:53:30;99364.40;;;-1.30
67822;BMP180;54434;50.096;20.082;2024-01-11T14:56:07;99360.00;;;-1.34
67822;BMP180;54434;50.096;20.082;2024-01-11T14:58:46;99357.20;;;-1.40